sensor_id;sensor_type;location;lat;lon;timestamp;pressure;altitude;pressure_sealevel;temperature;humidity
13800;BME280;6971;50.028;9.258;2023-01-27T00:03:25;99772.09;;;-1.99;100.00
13800;BME280;6971;50.028;9.258;2023-01-27T00:08:27;99760.91;;;-1.93;100.00
13800;BME280;6971;50.028;9.258;2023-01-27T00:13:28;99759.19;;;-2.04;100.00
13800;BME280;6971;50.028;9.258;2023-01-27T00:18:31;99751.44;;;-1.91;100.00
13800;BME280;6971;50.028;9.258;2023-01-27T00:23:32;99750.59;;;-1.90;100.00
13800;BME280;6971;50.028;9.258;2023-01-27T00:28:51;99745.44;;;-1.90;100.00
13800;BME280;6971;50.028;9.258;2023-01-27T00:33:53;99743.66;;;-2.07;100.00
13800;BME280;6971;50.028;9.258;2023-01-27T00:38:58;99735.84;;;-2.23;100.00
13800;BME280;6971;50.028;9.258;2023-01-27T00:43:59;99747.94;;;-2.07;100.00
13800;BME280;6971;50.028;9.258;2023-01-27T00:49:01;99741.09;;;-2.07;100.00
13800;BME280;6971;50.028;9.258;2023-01-27T00:54:02;99742.84;;;-1.92;100.00
13800;BME280;6971;50.028;9.258;2023-01-27T00:59:03;99748.00;;;-1.93;100.00
13800;BME280;6971;50.028;9.258;2023-01-27T01:04:04;99744.56;;;-1.99;100.00
13800;BME280;6971;50.028;9.258;2023-01-27T01:09:05;99749.72;;;-1.99;100.00
13800;BME280;6971;50.028;9.258;2023-01-27T01:14:06;99761.75;;;-1.98;100.00
13800;BME280;6971;50.028;9.258;2023-01-27T01:19:25;99765.19;;;-2.05;100.00
13800;BME280;6971;50.028;9.258;2023-01-27T01:24:26;99762.63;;;-1.92;100.00
13800;BME280;6971;50.028;9.258;2023-01-27T01:29:27;99764.34;;;-1.98;100.00
13800;BME280;6971;50.028;9.258;2023-01-27T01:34:28;99767.78;;;-1.94;100.00
13800;BME280;6971;50.028;9.258;2023-01-27T01:39:30;99767.81;;;-1.99;100.00
13800;BME280;6971;50.028;9.258;2023-01-27T01:44:31;99769.53;;;-1.98;100.00
13800;BME280;6971;50.028;9.258;2023-01-27T01:49:35;99766.06;;;-1.98;100.00
13800;BME280;6971;50.028;9.258;2023-01-27T01:54:49;99768.59;;;-2.17;100.00
13800;BME280;6971;50.028;9.258;2023-01-27T01:59:58;99760.03;;;-2.08;100.00
13800;BME280;6971;50.028;9.258;2023-01-27T02:05:25;99752.28;;;-2.10;100.00
13800;BME280;6971;50.028;9.258;2023-01-27T02:10:24;99747.06;;;-2.14;100.00
13800;BME280;6971;50.028;9.258;2023-01-27T02:15:25;99743.66;;;-2.10;100.00
13800;BME280;6971;50.028;9.258;2023-01-27T02:20:39;99736.78;;;-2.02;100.00
13800;BME280;6971;50.028;9.258;2023-01-27T02:30:51;99738.50;;;-2.01;100.00
13800;BME280;6971;50.028;9.258;2023-01-27T02:40:56;99745.41;;;-2.03;100.00
13800;BME280;6971;50.028;9.258;2023-01-27T02:45:59;99747.97;;;-2.03;100.00
13800;BME280;6971;50.028;9.258;2023-01-27T02:51:00;99753.97;;;-2.16;100.00
13800;BME280;6971;50.028;9.258;2023-01-27T02:56:16;99758.28;;;-2.15;100.00
13800;BME280;6971;50.028;9.258;2023-01-27T03:01:18;99760.91;;;-2.00;100.00
13800;BME280;6971;50.028;9.258;2023-01-27T03:06:19;99763.47;;;-1.97;100.00
13800;BME280;6971;50.028;9.258;2023-01-27T03:11:20;99760.00;;;-2.13;100.00
13800;BME280;6971;50.028;9.258;2023-01-27T03:16:39;99753.97;;;-2.16;100.00
13800;BME280;6971;50.028;9.258;2023-01-27T03:21:59;99759.97;;;-2.16;100.00
13800;BME280;6971;50.028;9.258;2023-01-27T03:27:01;99764.31;;;-2.02;100.00
13800;BME280;6971;50.028;9.258;2023-01-27T03:32:12;99768.63;;;-2.06;100.00
13800;BME280;6971;50.028;9.258;2023-01-27T03:37:13;99762.66;;;-1.89;100.00
13800;BME280;6971;50.028;9.258;2023-01-27T03:42:32;99763.53;;;-1.84;100.00
13800;BME280;6971;50.028;9.258;2023-01-27T03:47:52;99773.00;;;-1.88;100.00
13800;BME280;6971;50.028;9.258;2023-01-27T03:52:53;99776.41;;;-1.93;100.00
13800;BME280;6971;50.028;9.258;2023-01-27T03:58:03;99771.28;;;-1.78;100.00
13800;BME280;6971;50.028;9.258;2023-01-27T04:03:20;99779.88;;;-1.94;100.00
13800;BME280;6971;50.028;9.258;2023-01-27T04:08:43;99773.00;;;-1.83;100.00
13800;BME280;6971;50.028;9.258;2023-01-27T04:14:01;99786.78;;;-1.86;100.00
13800;BME280;6971;50.028;9.258;2023-01-27T04:19:05;99788.50;;;-1.74;100.00
13800;BME280;6971;50.028;9.258;2023-01-27T04:24:07;99793.66;;;-1.89;100.00
13800;BME280;6971;50.028;9.258;2023-01-27T04:29:16;99788.47;;;-1.92;100.00
13800;BME280;6971;50.028;9.258;2023-01-27T04:34:17;99792.78;;;-1.93;100.00
13800;BME280;6971;50.028;9.258;2023-01-27T04:39:18;99794.53;;;-1.84;100.00
13800;BME280;6971;50.028;9.258;2023-01-27T04:44:20;99797.13;;;-1.84;100.00
13800;BME280;6971;50.028;9.258;2023-01-27T04:49:21;99801.41;;;-1.88;100.00
13800;BME280;6971;50.028;9.258;2023-01-27T04:54:22;99798.84;;;-1.83;100.00
13800;BME280;6971;50.028;9.258;2023-01-27T04:59:23;99799.72;;;-1.82;100.00
13800;BME280;6971;50.028;9.258;2023-01-27T05:04:24;99808.34;;;-1.77;100.00
13800;BME280;6971;50.028;9.258;2023-01-27T05:09:26;99809.19;;;-1.80;100.00
13800;BME280;6971;50.028;9.258;2023-01-27T05:14:27;99811.75;;;-1.86;100.00
13800;BME280;6971;50.028;9.258;2023-01-27T05:19:28;99819.59;;;-1.56;100.00
13800;BME280;6971;50.028;9.258;2023-01-27T05:24:29;99816.09;;;-1.73;100.00
13800;BME280;6971;50.028;9.258;2023-01-27T05:29:30;99822.94;;;-1.84;100.00
13800;BME280;6971;50.028;9.258;2023-01-27T05:34:33;99815.19;;;-1.86;100.00
13800;BME280;6971;50.028;9.258;2023-01-27T05:39:33;99816.06;;;-1.88;100.00
13800;BME280;6971;50.028;9.258;2023-01-27T05:44:35;99810.03;;;-1.92;100.00
13800;BME280;6971;50.028;9.258;2023-01-27T05:49:36;99803.97;;;-1.99;100.00
13800;BME280;6971;50.028;9.258;2023-01-27T05:54:36;99817.78;;;-1.87;100.00
13800;BME280;6971;50.028;9.258;2023-01-27T05:59:38;99817.78;;;-1.92;100.00
13800;BME280;6971;50.028;9.258;2023-01-27T06:04:39;99816.88;;;-2.02;100.00
13800;BME280;6971;50.028;9.258;2023-01-27T06:09:40;99809.13;;;-1.95;100.00
13800;BME280;6971;50.028;9.258;2023-01-27T06:14:41;99809.13;;;-1.94;100.00
13800;BME280;6971;50.028;9.258;2023-01-27T06:19:42;99820.34;;;-2.00;100.00
13800;BME280;6971;50.028;9.258;2023-01-27T06:24:43;99826.34;;;-2.04;100.00
13800;BME280;6971;50.028;9.258;2023-01-27T06:29:44;99837.59;;;-1.81;100.00
13800;BME280;6971;50.028;9.258;2023-01-27T06:34:44;99840.97;;;-2.03;100.00
13800;BME280;6971;50.028;9.258;2023-01-27T06:39:45;99839.31;;;-1.93;100.00
13800;BME280;6971;50.028;9.258;2023-01-27T06:44:47;99840.16;;;-1.92;100.00
13800;BME280;6971;50.028;9.258;2023-01-27T06:49:48;99853.94;;;-1.93;100.00
13800;BME280;6971;50.028;9.258;2023-01-27T06:54:49;99858.22;;;-1.99;100.00
13800;BME280;6971;50.028;9.258;2023-01-27T06:59:50;99858.31;;;-1.77;100.00
13800;BME280;6971;50.028;9.258;2023-01-27T07:04:51;99863.41;;;-1.97;100.00
13800;BME280;6971;50.028;9.258;2023-01-27T07:09:53;99869.53;;;-1.72;100.00
13800;BME280;6971;50.028;9.258;2023-01-27T07:14:53;99874.63;;;-1.84;100.00
13800;BME280;6971;50.028;9.258;2023-01-27T07:19:55;99876.38;;;-1.81;100.00
13800;BME280;6971;50.028;9.258;2023-01-27T07:24:55;99876.41;;;-1.72;100.00
13800;BME280;6971;50.028;9.258;2023-01-27T07:29:56;99880.72;;;-1.66;100.00
13800;BME280;6971;50.028;9.258;2023-01-27T07:34:57;99884.16;;;-1.71;100.00
13800;BME280;6971;50.028;9.258;2023-01-27T07:40:13;99891.09;;;-1.57;100.00
13800;BME280;6971;50.028;9.258;2023-01-27T07:45:14;99897.97;;;-1.58;100.00
13800;BME280;6971;50.028;9.258;2023-01-27T07:50:15;99904.06;;;-1.48;100.00
13800;BME280;6971;50.028;9.258;2023-01-27T07:55:16;99907.53;;;-1.39;100.00
13800;BME280;6971;50.028;9.258;2023-01-27T08:00:18;99906.72;;;-1.24;100.00
13800;BME280;6971;50.028;9.258;2023-01-27T08:05:21;99913.56;;;-1.33;100.00
13800;BME280;6971;50.028;9.258;2023-01-27T08:10:22;99923.97;;;-1.20;100.00
13800;BME280;6971;50.028;9.258;2023-01-27T08:15:23;99922.22;;;-1.26;100.00
13800;BME280;6971;50.028;9.258;2023-01-27T08:20:26;99923.97;;;-1.14;100.00
13800;BME280;6971;50.028;9.258;2023-01-27T08:25:27;99928.28;;;-1.08;100.00
13800;BME280;6971;50.028;9.258;2023-01-27T08:30:27;99932.59;;;-1.06;100.00
13800;BME280;6971;50.028;9.258;2023-01-27T08:35:28;99937.78;;;-1.09;100.00
13800;BME280;6971;50.028;9.258;2023-01-27T08:40:29;99949.88;;;-1.00;100.00
13800;BME280;6971;50.028;9.258;2023-01-27T08:45:30;99951.59;;;-0.91;100.00
13800;BME280;6971;50.028;9.258;2023-01-27T08:50:31;99961.13;;;-0.82;100.00
13800;BME280;6971;50.028;9.258;2023-01-27T08:55:35;99949.00;;;-0.99;100.00
13800;BME280;6971;50.028;9.258;2023-01-27T09:00:36;99954.19;;;-1.02;100.00
13800;BME280;6971;50.028;9.258;2023-01-27T09:05:37;99957.66;;;-0.87;100.00
13800;BME280;6971;50.028;9.258;2023-01-27T09:10:39;99960.25;;;-0.73;100.00
13800;BME280;6971;50.028;9.258;2023-01-27T09:15:41;99966.31;;;-0.60;100.00
13800;BME280;6971;50.028;9.258;2023-01-27T09:20:43;99970.59;;;-0.62;100.00
13800;BME280;6971;50.028;9.258;2023-01-27T09:25:43;99968.91;;;-0.46;100.00
13800;BME280;6971;50.028;9.258;2023-01-27T09:30:45;99959.41;;;-0.33;100.00
13800;BME280;6971;50.028;9.258;2023-01-27T09:35:50;99965.44;;;-0.39;100.00
13800;BME280;6971;50.028;9.258;2023-01-27T09:51:19;99985.31;;;-0.50;100.00
13800;BME280;6971;50.028;9.258;2023-01-27T09:56:34;99976.66;;;-0.45;100.00
13800;BME280;6971;50.028;9.258;2023-01-27T10:02:28;99973.22;;;-0.25;100.00
13800;BME280;6971;50.028;9.258;2023-01-27T10:07:22;99961.97;;;-0.38;100.00
13800;BME280;6971;50.028;9.258;2023-01-27T10:13:21;99963.72;;;-0.31;100.00
13800;BME280;6971;50.028;9.258;2023-01-27T10:28:47;99961.06;;;0.01;100.00
13800;BME280;6971;50.028;9.258;2023-01-27T10:33:51;99955.88;;;0.10;100.00
13800;BME280;6971;50.028;9.258;2023-01-27T10:39:08;99960.16;;;0.23;100.00
13800;BME280;6971;50.028;9.258;2023-01-27T10:49:48;99942.88;;;0.25;100.00
13800;BME280;6971;50.028;9.258;2023-01-27T10:54:56;99938.16;;;1.07;100.00
13800;BME280;6971;50.028;9.258;2023-01-27T11:00:06;99945.06;;;1.07;100.00
13800;BME280;6971;50.028;9.258;2023-01-27T11:05:19;99953.63;;;1.23;100.00
13800;BME280;6971;50.028;9.258;2023-01-27T11:10:21;99954.56;;;1.06;100.00
13800;BME280;6971;50.028;9.258;2023-01-27T11:15:28;99948.50;;;1.10;100.00
13800;BME280;6971;50.028;9.258;2023-01-27T11:25:52;99935.97;;;1.65;100.00
13800;BME280;6971;50.028;9.258;2023-01-27T11:36:10;99928.78;;;1.89;100.00
13800;BME280;6971;50.028;9.258;2023-01-27T11:41:12;99918.97;;;2.18;100.00
13800;BME280;6971;50.028;9.258;2023-01-27T11:46:19;99917.50;;;1.93;100.00
13800;BME280;6971;50.028;9.258;2023-01-27T11:51:26;99911.47;;;1.91;100.00
13800;BME280;6971;50.028;9.258;2023-01-27T11:56:34;99920.75;;;2.14;100.00
13800;BME280;6971;50.028;9.258;2023-01-27T12:01:43;99922.38;;;2.21;100.00
13800;BME280;6971;50.028;9.258;2023-01-27T12:07:15;99917.97;;;2.28;100.00
13800;BME280;6971;50.028;9.258;2023-01-27T12:12:24;99926.84;;;2.10;100.00
13800;BME280;6971;50.028;9.258;2023-01-27T12:17:40;99921.66;;;2.10;100.00
13800;BME280;6971;50.028;9.258;2023-01-27T12:23:18;99919.78;;;2.21;100.00
13800;BME280;6971;50.028;9.258;2023-01-27T12:33:30;99912.06;;;2.14;100.00
13800;BME280;6971;50.028;9.258;2023-01-27T12:38:35;99916.44;;;2.10;100.00
13800;BME280;6971;50.028;9.258;2023-01-27T12:43:49;99913.00;;;2.08;100.00
13800;BME280;6971;50.028;9.258;2023-01-27T12:48:54;99915.56;;;2.11;100.00
13800;BME280;6971;50.028;9.258;2023-01-27T12:54:24;99904.16;;;2.21;100.00
13800;BME280;6971;50.028;9.258;2023-01-27T12:59:26;99901.69;;;2.11;100.00
13800;BME280;6971;50.028;9.258;2023-01-27T13:04:28;99911.84;;;2.32;100.00
13800;BME280;6971;50.028;9.258;2023-01-27T13:09:33;99911.13;;;2.19;100.00
13800;BME280;6971;50.028;9.258;2023-01-27T13:14:39;99916.38;;;2.16;100.00
13800;BME280;6971;50.028;9.258;2023-01-27T13:19:43;99910.47;;;2.00;100.00
13800;BME280;6971;50.028;9.258;2023-01-27T13:24:46;99909.66;;;1.97;100.00
13800;BME280;6971;50.028;9.258;2023-01-27T13:30:36;99901.78;;;2.04;100.00
13800;BME280;6971;50.028;9.258;2023-01-27T13:36:24;99911.34;;;2.01;100.00
13800;BME280;6971;50.028;9.258;2023-01-27T13:41:41;99917.34;;;2.07;100.00
13800;BME280;6971;50.028;9.258;2023-01-27T13:46:44;99916.44;;;2.10;100.00
13800;BME280;6971;50.028;9.258;2023-01-27T13:51:47;99920.66;;;2.19;100.00
13800;BME280;6971;50.028;9.258;2023-01-27T14:02:38;99922.69;;;1.92;100.00
13800;BME280;6971;50.028;9.258;2023-01-27T14:13:25;99916.75;;;1.82;100.00
13800;BME280;6971;50.028;9.258;2023-01-27T14:18:33;99919.28;;;1.88;100.00
13800;BME280;6971;50.028;9.258;2023-01-27T14:24:05;99916.50;;;2.04;100.00
13800;BME280;6971;50.028;9.258;2023-01-27T14:29:20;99918.34;;;1.95;100.00
13800;BME280;6971;50.028;9.258;2023-01-27T14:34:44;99930.50;;;1.92;100.00
13800;BME280;6971;50.028;9.258;2023-01-27T15:13:03;99964.25;;;1.98;100.00
13800;BME280;6971;50.028;9.258;2023-01-27T15:23:22;99980.81;;;1.86;100.00
13800;BME280;6971;50.028;9.258;2023-01-27T15:28:28;99987.03;;;1.68;100.00
13800;BME280;6971;50.028;9.258;2023-01-27T15:44:16;99990.69;;;1.47;100.00
13800;BME280;6971;50.028;9.258;2023-01-27T15:49:23;99994.25;;;1.30;100.00
13800;BME280;6971;50.028;9.258;2023-01-27T15:54:30;99997.75;;;1.27;100.00
13800;BME280;6971;50.028;9.258;2023-01-27T15:59:47;99993.44;;;1.20;100.00
13800;BME280;6971;50.028;9.258;2023-01-27T16:04:54;100001.22;;;1.22;100.00
13800;BME280;6971;50.028;9.258;2023-01-27T16:09:57;100004.72;;;1.16;100.00
13800;BME280;6971;50.028;9.258;2023-01-27T16:20:26;100013.41;;;1.13;100.00
13800;BME280;6971;50.028;9.258;2023-01-27T16:25:43;100009.97;;;1.05;100.00
13800;BME280;6971;50.028;9.258;2023-01-27T16:30:57;100014.28;;;1.12;100.00
13800;BME280;6971;50.028;9.258;2023-01-27T16:36:17;100022.09;;;1.06;100.00
13800;BME280;6971;50.028;9.258;2023-01-27T16:41:27;100019.47;;;1.06;100.00
13800;BME280;6971;50.028;9.258;2023-01-27T16:46:34;100021.25;;;1.06;100.00
13800;BME280;6971;50.028;9.258;2023-01-27T16:51:37;100022.91;;;1.17;100.00
13800;BME280;6971;50.028;9.258;2023-01-27T16:56:38;100024.56;;;1.28;100.00
13800;BME280;6971;50.028;9.258;2023-01-27T17:01:58;100039.28;;;1.27;100.00
13800;BME280;6971;50.028;9.258;2023-01-27T17:07:06;100043.59;;;1.28;100.00
13800;BME280;6971;50.028;9.258;2023-01-27T17:12:26;100058.34;;;1.23;100.00
13800;BME280;6971;50.028;9.258;2023-01-27T17:17:30;100059.19;;;1.30;100.00
13800;BME280;6971;50.028;9.258;2023-01-27T17:22:39;100054.06;;;1.21;100.00
13800;BME280;6971;50.028;9.258;2023-01-27T17:27:41;100054.06;;;1.21;100.00
13800;BME280;6971;50.028;9.258;2023-01-27T17:32:49;100039.31;;;1.21;100.00
13800;BME280;6971;50.028;9.258;2023-01-27T17:37:51;100046.28;;;1.13;100.00
13800;BME280;6971;50.028;9.258;2023-01-27T17:42:52;100050.63;;;1.09;100.00
13800;BME280;6971;50.028;9.258;2023-01-27T17:47:56;100052.34;;;1.12;100.00
13800;BME280;6971;50.028;9.258;2023-01-27T17:52:58;100060.13;;;1.16;100.00
13800;BME280;6971;50.028;9.258;2023-01-27T17:58:04;100054.06;;;1.17;100.00
13800;BME280;6971;50.028;9.258;2023-01-27T18:03:22;100062.72;;;1.12;100.00
13800;BME280;6971;50.028;9.258;2023-01-27T18:08:25;100067.09;;;1.08;100.00
13800;BME280;6971;50.028;9.258;2023-01-27T18:18:32;100062.72;;;1.10;100.00
13800;BME280;6971;50.028;9.258;2023-01-27T18:23:51;100076.59;;;1.09;100.00
13800;BME280;6971;50.028;9.258;2023-01-27T18:29:05;100074.88;;;1.07;100.00
13800;BME280;6971;50.028;9.258;2023-01-27T18:34:28;100086.13;;;1.07;100.00
13800;BME280;6971;50.028;9.258;2023-01-27T18:39:39;100093.94;;;1.01;100.00
13800;BME280;6971;50.028;9.258;2023-01-27T18:44:41;100090.47;;;1.08;100.00
13800;BME280;6971;50.028;9.258;2023-01-27T18:55:26;100095.66;;;1.02;100.00
13800;BME280;6971;50.028;9.258;2023-01-27T19:00:36;100103.44;;;1.05;100.00
13800;BME280;6971;50.028;9.258;2023-01-27T19:05:40;100100.84;;;1.05;100.00
13800;BME280;6971;50.028;9.258;2023-01-27T19:10:41;100097.41;;;1.03;100.00
13800;BME280;6971;50.028;9.258;2023-01-27T19:15:45;100094.81;;;1.04;100.00
13800;BME280;6971;50.028;9.258;2023-01-27T19:20:48;100101.69;;;1.09;100.00
13800;BME280;6971;50.028;9.258;2023-01-27T19:25:52;100105.19;;;1.00;100.00
13800;BME280;6971;50.028;9.258;2023-01-27T19:30:53;100103.47;;;0.97;100.00
13800;BME280;6971;50.028;9.258;2023-01-27T19:35:59;100100.91;;;0.86;100.00
13800;BME280;6971;50.028;9.258;2023-01-27T19:41:00;100119.06;;;0.97;100.00
13800;BME280;6971;50.028;9.258;2023-01-27T19:46:01;100123.41;;;0.94;100.00
13800;BME280;6971;50.028;9.258;2023-01-27T19:51:08;100120.78;;;1.01;100.00
13800;BME280;6971;50.028;9.258;2023-01-27T19:56:15;100127.69;;;1.02;100.00
13800;BME280;6971;50.028;9.258;2023-01-27T20:01:17;100133.78;;;0.94;100.00
13800;BME280;6971;50.028;9.258;2023-01-27T20:06:20;100135.50;;;0.95;100.00
13800;BME280;6971;50.028;9.258;2023-01-27T20:11:28;100137.22;;;0.93;100.00
13800;BME280;6971;50.028;9.258;2023-01-27T20:16:29;100134.63;;;0.96;100.00
13800;BME280;6971;50.028;9.258;2023-01-27T20:21:31;100139.81;;;0.97;100.00
13800;BME280;6971;50.028;9.258;2023-01-27T20:26:33;100138.97;;;0.94;100.00
13800;BME280;6971;50.028;9.258;2023-01-27T20:31:37;100145.03;;;0.88;100.00
13800;BME280;6971;50.028;9.258;2023-01-27T20:36:38;100144.16;;;0.84;100.00
13800;BME280;6971;50.028;9.258;2023-01-27T20:41:39;100146.78;;;0.83;100.00
13800;BME280;6971;50.028;9.258;2023-01-27T20:46:40;100149.38;;;0.81;100.00
13800;BME280;6971;50.028;9.258;2023-01-27T20:51:40;100144.16;;;0.89;100.00
13800;BME280;6971;50.028;9.258;2023-01-27T20:56:41;100161.47;;;0.79;100.00
13800;BME280;6971;50.028;9.258;2023-01-27T21:01:42;100164.94;;;0.84;100.00
13800;BME280;6971;50.028;9.258;2023-01-27T21:06:45;100163.22;;;0.86;100.00
13800;BME280;6971;50.028;9.258;2023-01-27T21:11:46;100173.59;;;0.89;100.00
13800;BME280;6971;50.028;9.258;2023-01-27T21:16:47;100176.19;;;0.85;100.00
13800;BME280;6971;50.028;9.258;2023-01-27T21:21:48;100176.19;;;0.83;100.00
13800;BME280;6971;50.028;9.258;2023-01-27T21:26:49;100175.31;;;0.92;100.00
13800;BME280;6971;50.028;9.258;2023-01-27T21:31:54;100164.94;;;0.78;100.00
13800;BME280;6971;50.028;9.258;2023-01-27T21:36:54;100161.53;;;0.67;100.00
13800;BME280;6971;50.028;9.258;2023-01-27T21:41:56;100168.44;;;0.43;100.00
13800;BME280;6971;50.028;9.258;2023-01-27T21:46:56;100177.09;;;0.48;100.00
13800;BME280;6971;50.028;9.258;2023-01-27T21:51:58;100176.22;;;0.58;100.00
13800;BME280;6971;50.028;9.258;2023-01-27T21:56:58;100170.19;;;0.62;100.00
13800;BME280;6971;50.028;9.258;2023-01-27T22:02:01;100170.16;;;0.56;100.00
13800;BME280;6971;50.028;9.258;2023-01-27T22:07:01;100180.56;;;0.47;100.00
13800;BME280;6971;50.028;9.258;2023-01-27T22:12:03;100176.22;;;0.63;100.00
13800;BME280;6971;50.028;9.258;2023-01-27T22:17:04;100171.91;;;0.54;100.00
13800;BME280;6971;50.028;9.258;2023-01-27T22:22:07;100174.50;;;0.67;100.00
13800;BME280;6971;50.028;9.258;2023-01-27T22:27:09;100172.78;;;0.36;100.00
13800;BME280;6971;50.028;9.258;2023-01-27T22:32:10;100169.31;;;0.34;100.00
13800;BME280;6971;50.028;9.258;2023-01-27T22:37:11;100162.41;;;0.28;100.00
13800;BME280;6971;50.028;9.258;2023-01-27T22:42:11;100158.06;;;0.32;100.00
13800;BME280;6971;50.028;9.258;2023-01-27T22:47:12;100159.78;;;0.12;100.00
13800;BME280;6971;50.028;9.258;2023-01-27T22:52:14;100158.03;;;-0.17;100.00
13800;BME280;6971;50.028;9.258;2023-01-27T22:57:16;100162.34;;;-0.16;100.00
13800;BME280;6971;50.028;9.258;2023-01-27T23:02:34;100158.06;;;-0.07;100.00
13800;BME280;6971;50.028;9.258;2023-01-27T23:07:35;100156.28;;;-0.27;100.00
13800;BME280;6971;50.028;9.258;2023-01-27T23:12:37;100161.47;;;-0.24;100.00
13800;BME280;6971;50.028;9.258;2023-01-27T23:17:38;100158.09;;;0.05;100.00
13800;BME280;6971;50.028;9.258;2023-01-27T23:22:39;100154.56;;;-0.19;100.00
13800;BME280;6971;50.028;9.258;2023-01-27T23:27:41;100160.63;;;-0.18;100.00
13800;BME280;6971;50.028;9.258;2023-01-27T23:32:42;100162.31;;;-0.28;100.00
13800;BME280;6971;50.028;9.258;2023-01-27T23:37:43;100159.72;;;-0.30;100.00
13800;BME280;6971;50.028;9.258;2023-01-27T23:42:44;100157.16;;;-0.20;100.00
13800;BME280;6971;50.028;9.258;2023-01-27T23:47:44;100160.63;;;-0.12;100.00
13800;BME280;6971;50.028;9.258;2023-01-27T23:52:46;100160.66;;;-0.15;100.00
13800;BME280;6971;50.028;9.258;2023-01-27T23:57:47;100171.00;;;-0.03;100.00
